createdAt,value
2022-10-03T00:00:21.806Z,11.63
2022-10-03T00:03:30.814Z,11.57
2022-10-03T00:06:15.331Z,14.20
2022-10-03T00:09:09.114Z,17.07
2022-10-03T00:11:44.011Z,12.17
2022-10-03T00:14:37.147Z,17.63
2022-10-03T00:17:19.157Z,18.87
2022-10-03T00:20:16.152Z,15.17
2022-10-03T00:22:48.074Z,13.57
2022-10-03T00:25:17.931Z,16.03
2022-10-03T00:27:55.398Z,18.10
2022-10-03T00:30:24.555Z,10.23
2022-10-03T00:32:52.021Z,13.23
2022-10-03T00:35:41.188Z,18.27
2022-10-03T00:38:45.356Z,13.87
2022-10-03T00:41:23.938Z,16.37
2022-10-03T00:44:16.451Z,16.57
2022-10-03T00:47:21.420Z,14.33
2022-10-03T00:50:16.955Z,9.87
2022-10-03T00:53:11.456Z,10.23
2022-10-03T00:56:15.383Z,13.23
2022-10-03T00:59:02.780Z,12.03
2022-10-03T01:01:37.976Z,12.20
2022-10-03T01:04:05.397Z,14.67
2022-10-03T01:06:34.983Z,17.33
2022-10-03T01:09:36.522Z,14.30
2022-10-03T01:12:12.427Z,15.87
2022-10-03T01:15:06.000Z,9.23
2022-10-03T01:17:47.989Z,11.97
2022-10-03T01:20:27.892Z,14.63
2022-10-03T01:23:03.671Z,18.13
2022-10-03T01:26:04.743Z,14.47
2022-10-03T01:29:27.815Z,19.57
2022-10-03T01:32:05.040Z,20.13
2022-10-03T01:34:45.502Z,22.13
2022-10-03T01:37:12.585Z,16.53
2022-10-03T01:39:55.754Z,14.13
2022-10-03T01:42:44.396Z,13.43
2022-10-03T01:45:52.833Z,17.07
2022-10-03T01:48:35.747Z,16.37
2022-10-03T01:51:12.327Z,9.47
2022-10-03T01:53:59.969Z,14.47
2022-10-03T01:56:35.697Z,10.93
2022-10-03T01:59:13.486Z,12.93
2022-10-03T02:01:50.050Z,16.77
2022-10-03T02:04:45.342Z,12.50
2022-10-03T02:07:45.575Z,13.47
2022-10-03T02:10:19.457Z,10.80
2022-10-03T02:13:00.200Z,15.40
2022-10-03T02:15:42.134Z,13.37
2022-10-03T02:18:31.570Z,13.17
2022-10-03T02:21:13.361Z,12.93
2022-10-03T02:23:44.144Z,16.73
2022-10-03T02:26:26.468Z,9.00
2022-10-03T02:29:23.828Z,15.80
2022-10-03T02:32:09.146Z,9.00
2022-10-03T02:35:18.266Z,8.37
2022-10-03T02:40:17.458Z,12.27
2022-10-03T02:43:02.608Z,10.57
2022-10-03T02:45:47.883Z,18.17
2022-10-03T02:48:52.150Z,11.33
2022-10-03T02:51:56.027Z,14.57
2022-10-03T02:54:50.184Z,11.40
2022-10-03T02:57:23.020Z,11.37
2022-10-03T03:00:20.964Z,11.03
2022-10-03T03:03:14.419Z,13.73
2022-10-03T03:06:11.824Z,10.07
2022-10-03T03:09:16.053Z,9.57
2022-10-03T03:12:05.373Z,13.73
2022-10-03T03:15:08.393Z,14.17
2022-10-03T03:17:43.665Z,13.97
2022-10-03T03:20:21.994Z,13.70
2022-10-03T03:23:14.395Z,10.23
2022-10-03T03:25:58.492Z,15.43
2022-10-03T03:28:36.980Z,15.83
2022-10-03T03:31:14.341Z,14.47
2022-10-03T03:34:09.766Z,12.90
2022-10-03T03:36:51.581Z,12.37
2022-10-03T03:39:33.189Z,12.43
2022-10-03T03:42:18.696Z,16.30
2022-10-03T03:45:07.193Z,12.33
2022-10-03T03:47:47.633Z,11.40
2022-10-03T03:50:48.473Z,13.40
2022-10-03T03:53:30.096Z,11.57
2022-10-03T03:56:19.353Z,11.83
2022-10-03T03:59:00.938Z,15.27
2022-10-03T04:02:06.500Z,9.40
2022-10-03T04:04:36.232Z,9.60
2022-10-03T04:07:49.133Z,14.43
2022-10-03T04:10:57.079Z,14.10
2022-10-03T04:13:23.668Z,9.03
2022-10-03T04:16:15.063Z,15.27
2022-10-03T04:19:04.967Z,9.40
2022-10-03T04:21:55.858Z,11.50
2022-10-03T04:24:36.527Z,11.10
2022-10-03T04:27:38.026Z,8.20
2022-10-03T04:30:19.345Z,15.57
2022-10-03T04:33:30.384Z,14.17
2022-10-03T04:36:18.668Z,9.23
2022-10-03T04:39:06.895Z,9.53
2022-10-03T04:41:43.380Z,12.77
2022-10-03T04:44:21.252Z,10.23
2022-10-03T04:47:06.511Z,15.57
2022-10-03T04:49:45.616Z,11.63
2022-10-03T04:52:33.576Z,12.40
2022-10-03T04:55:18.927Z,12.57
2022-10-03T04:58:05.846Z,11.90
2022-10-03T05:01:17.181Z,15.27
2022-10-03T05:04:07.636Z,15.17
2022-10-03T05:06:34.665Z,10.00
2022-10-03T05:09:13.119Z,12.97
2022-10-03T05:11:49.088Z,10.27
2022-10-03T05:14:28.258Z,14.00
2022-10-03T05:16:57.393Z,9.67
2022-10-03T05:19:24.053Z,11.93
2022-10-03T05:21:51.110Z,13.73
2022-10-03T05:24:40.729Z,16.17
2022-10-03T05:27:25.525Z,12.67
2022-10-03T05:30:14.265Z,12.23
2022-10-03T05:33:10.728Z,10.47
2022-10-03T05:35:51.098Z,11.40
2022-10-03T05:38:54.706Z,13.83
2022-10-03T05:41:26.992Z,9.60
2022-10-03T05:44:04.712Z,15.90
2022-10-03T05:46:40.338Z,13.90
2022-10-03T05:49:35.115Z,18.17
2022-10-03T05:52:03.923Z,10.57
2022-10-03T05:54:31.018Z,13.63
2022-10-03T05:57:28.389Z,13.47
2022-10-03T06:00:23.224Z,9.13
2022-10-03T06:03:14.268Z,12.77
2022-10-03T06:06:21.087Z,11.67
2022-10-03T06:09:06.583Z,19.60
2022-10-03T06:11:59.000Z,13.63
2022-10-03T06:14:35.181Z,13.13
2022-10-03T06:17:24.409Z,13.00
2022-10-03T06:19:51.404Z,15.57
2022-10-03T06:22:33.232Z,11.30
2022-10-03T06:25:00.277Z,11.43
2022-10-03T06:27:48.199Z,12.30
2022-10-03T06:30:38.191Z,19.90
2022-10-03T06:33:51.911Z,13.07
2022-10-03T06:36:29.750Z,10.63
2022-10-03T06:39:30.186Z,12.43
2022-10-03T06:42:20.990Z,14.37
2022-10-03T06:45:17.425Z,11.57
2022-10-03T06:48:22.049Z,8.40
2022-10-03T06:51:16.693Z,10.50
2022-10-03T06:54:11.453Z,14.13
2022-10-03T06:57:05.570Z,12.30
2022-10-03T07:00:01.654Z,13.83
2022-10-03T07:02:48.055Z,10.20
2022-10-03T07:05:48.560Z,8.97
2022-10-03T07:08:53.344Z,8.47
2022-10-03T07:11:43.008Z,14.57
2022-10-03T07:14:36.928Z,9.97
2022-10-03T07:17:28.150Z,13.60
2022-10-03T07:20:03.739Z,11.30
2022-10-03T07:22:48.202Z,12.80
2022-10-03T07:26:10.779Z,8.07
2022-10-03T07:29:01.977Z,16.47
2022-10-03T07:31:55.731Z,9.07
2022-10-03T07:34:43.884Z,14.43
2022-10-03T07:38:30.774Z,9.70
2022-10-03T07:41:15.424Z,15.93
2022-10-03T07:44:07.358Z,13.90
2022-10-03T07:46:59.453Z,9.87
2022-10-03T07:50:01.346Z,16.47
2022-10-03T07:53:04.778Z,11.60
2022-10-03T07:55:58.069Z,12.03
2022-10-03T07:59:03.148Z,13.10
2022-10-03T08:01:30.175Z,10.73
2022-10-03T08:04:21.010Z,11.30
2022-10-03T08:07:10.154Z,15.53
2022-10-03T08:09:59.785Z,14.03
2022-10-03T08:12:44.485Z,15.33
2022-10-03T08:15:24.940Z,14.03
2022-10-03T08:18:17.302Z,15.47
2022-10-03T08:20:51.249Z,12.73
2022-10-03T08:23:18.271Z,14.93
2022-10-03T08:26:08.896Z,14.53
2022-10-03T08:29:04.156Z,15.43
2022-10-03T08:31:48.819Z,14.87
2022-10-03T08:34:44.079Z,16.17
2022-10-03T08:37:22.690Z,11.93
2022-10-03T08:39:55.483Z,12.80
2022-10-03T08:42:41.052Z,12.93
2022-10-03T08:45:45.443Z,16.17
2022-10-03T08:48:42.269Z,11.63
2022-10-03T08:51:12.186Z,15.50
2022-10-03T08:53:54.010Z,14.50
2022-10-03T08:56:35.784Z,14.13
2022-10-03T08:59:02.836Z,15.93
2022-10-03T09:02:14.803Z,17.17
2022-10-03T09:05:06.593Z,10.10
2022-10-03T09:07:55.125Z,12.13
2022-10-03T09:10:33.366Z,16.60
2022-10-03T09:13:05.826Z,12.97
2022-10-03T09:16:20.653Z,17.87
2022-10-03T09:19:08.951Z,15.57
2022-10-03T09:21:38.616Z,16.37
2022-10-03T09:24:40.626Z,13.87
2022-10-03T09:27:16.231Z,20.00
2022-10-03T09:29:45.950Z,12.63
2022-10-03T09:32:50.074Z,15.63
2022-10-03T09:35:40.751Z,12.27
2022-10-03T09:38:42.892Z,13.30
2022-10-03T09:41:46.937Z,14.10
2022-10-03T09:44:13.964Z,10.57
2022-10-03T09:47:21.191Z,10.90
2022-10-03T09:50:19.192Z,11.10
2022-10-03T09:53:04.259Z,13.60
2022-10-03T09:56:01.352Z,11.27
2022-10-03T09:58:45.111Z,12.03
2022-10-03T10:01:32.176Z,16.73
2022-10-03T10:04:28.493Z,15.63
2022-10-03T10:07:22.248Z,17.80
2022-10-03T10:10:07.735Z,13.87
2022-10-03T10:13:12.247Z,10.50
2022-10-03T10:15:39.313Z,12.80
2022-10-03T10:18:41.201Z,9.30
2022-10-03T10:21:30.310Z,11.77
2022-10-03T10:24:51.114Z,11.27
2022-10-03T10:27:48.224Z,12.93
2022-10-03T10:30:15.430Z,8.50
2022-10-03T10:32:42.509Z,14.60
2022-10-03T10:35:39.342Z,10.50
2022-10-03T10:38:27.037Z,9.90
2022-10-03T10:41:31.111Z,5.30
2022-10-03T10:44:32.096Z,7.77
2022-10-03T10:47:11.412Z,6.67
2022-10-03T10:50:22.688Z,8.93
2022-10-03T10:53:09.349Z,11.00
2022-10-03T10:55:48.000Z,8.73
2022-10-03T10:58:42.651Z,13.30
2022-10-03T11:01:46.970Z,6.43
2022-10-03T11:04:22.782Z,10.37
2022-10-03T11:07:23.402Z,6.63
2022-10-03T11:10:11.469Z,8.00
2022-10-03T11:12:56.233Z,7.27
2022-10-03T11:15:44.542Z,9.73
2022-10-03T11:18:48.898Z,7.77
2022-10-03T11:21:52.501Z,9.23
2022-10-03T11:24:44.151Z,8.57
2022-10-03T11:27:13.883Z,11.17
2022-10-03T11:29:59.135Z,8.90
2022-10-03T11:32:53.692Z,6.97
2022-10-03T11:35:32.216Z,4.60
2022-10-03T11:38:04.789Z,6.20
2022-10-03T11:40:56.117Z,9.13
2022-10-03T11:44:01.513Z,6.93
2022-10-03T11:46:52.359Z,6.37
2022-10-03T11:49:43.102Z,3.70
2022-10-03T11:52:21.773Z,4.33
2022-10-03T11:54:52.062Z,6.43
2022-10-03T11:57:28.365Z,6.33
2022-10-03T12:00:00.342Z,3.37
2022-10-03T12:02:45.250Z,9.53
2022-10-03T12:05:11.968Z,7.90
2022-10-03T12:08:27.369Z,7.57
2022-10-03T12:11:15.620Z,7.03
2022-10-03T12:14:21.435Z,7.80
2022-10-03T12:17:01.202Z,4.13
2022-10-03T12:19:36.901Z,8.83
2022-10-03T12:22:36.614Z,9.13
2022-10-03T12:25:17.874Z,7.10
2022-10-03T12:27:58.462Z,4.60
2022-10-03T12:30:27.495Z,8.47
2022-10-03T12:33:21.252Z,8.23
2022-10-03T12:35:57.751Z,8.00
2022-10-03T12:38:37.257Z,7.10
2022-10-03T12:41:18.198Z,5.23
2022-10-03T12:44:04.987Z,4.97
2022-10-03T12:47:17.742Z,4.83
2022-10-03T12:50:15.199Z,5.20
2022-10-03T12:52:57.404Z,6.20
2022-10-03T12:55:36.465Z,5.63
2022-10-03T12:58:08.771Z,7.20
2022-10-03T13:01:01.279Z,6.60
2022-10-03T13:03:51.975Z,6.80
2022-10-03T13:07:04.648Z,5.77
2022-10-03T13:09:32.866Z,9.53
2022-10-03T13:12:27.866Z,5.10
2022-10-03T13:15:29.403Z,8.00
2022-10-03T13:17:56.507Z,9.53
2022-10-03T13:20:35.324Z,7.10
2022-10-03T13:23:28.159Z,7.03
2022-10-03T13:26:11.757Z,7.00
2022-10-03T13:29:11.567Z,6.97
2022-10-03T13:32:03.403Z,9.80
2022-10-03T13:34:40.985Z,5.20
2022-10-03T13:37:16.869Z,6.03
2022-10-03T13:39:55.088Z,6.40
2022-10-03T13:42:39.156Z,4.27
2022-10-03T13:45:19.482Z,7.83
2022-10-03T13:48:00.647Z,6.30
2022-10-03T13:50:29.011Z,6.20
2022-10-03T13:53:01.010Z,5.67
2022-10-03T13:55:52.886Z,6.73
2022-10-03T13:58:36.811Z,4.67
2022-10-03T14:01:25.243Z,5.37
2022-10-03T14:03:52.335Z,6.50
2022-10-03T14:06:43.613Z,7.87
2022-10-03T14:09:22.144Z,4.57
2022-10-03T14:12:06.086Z,6.50
2022-10-03T14:14:57.463Z,6.77
2022-10-03T14:17:56.799Z,5.23
2022-10-03T14:20:58.427Z,6.90
2022-10-03T14:23:42.189Z,6.03
2022-10-03T14:26:21.458Z,3.60
2022-10-03T14:29:12.959Z,3.60
2022-10-03T14:31:57.218Z,2.60
2022-10-03T14:34:33.205Z,5.90
2022-10-03T14:37:28.339Z,3.97
2022-10-03T14:40:12.263Z,3.50
2022-10-03T14:42:59.161Z,6.10
2022-10-03T14:45:31.013Z,3.60
2022-10-03T14:48:05.485Z,4.43
2022-10-03T14:50:33.044Z,5.17
2022-10-03T14:53:13.802Z,6.97
2022-10-03T14:55:46.751Z,7.50
2022-10-03T14:58:23.948Z,4.80
2022-10-03T15:01:02.212Z,10.07
2022-10-03T15:03:37.873Z,5.03
2022-10-03T15:06:10.482Z,6.47
2022-10-03T15:08:38.278Z,6.07
2022-10-03T15:11:06.728Z,4.43
2022-10-03T15:13:43.895Z,6.40
2022-10-03T15:16:19.116Z,2.90
2022-10-03T15:18:57.528Z,5.07
2022-10-03T15:21:26.059Z,6.43
2022-10-03T15:24:14.617Z,6.50
2022-10-03T15:26:54.529Z,6.37
2022-10-03T15:29:24.085Z,7.00
2022-10-03T15:31:51.639Z,7.43
2022-10-03T15:34:25.646Z,9.57
2022-10-03T15:37:01.472Z,8.60
2022-10-03T15:39:40.338Z,8.50
2022-10-03T15:42:09.793Z,4.53
2022-10-03T15:45:06.589Z,5.63
2022-10-03T15:47:44.100Z,3.90
2022-10-03T15:50:34.101Z,8.03
2022-10-03T15:53:35.511Z,9.03
2022-10-03T15:56:55.288Z,6.20
2022-10-03T15:59:34.652Z,7.07
2022-10-03T16:02:15.841Z,7.93
2022-10-03T16:04:46.903Z,6.10
2022-10-03T16:07:35.504Z,11.07
2022-10-03T16:10:22.641Z,7.13
2022-10-03T16:13:10.585Z,10.00
2022-10-03T16:16:04.045Z,9.93
2022-10-03T16:18:31.121Z,9.13
2022-10-03T16:21:00.348Z,9.07
2022-10-03T16:23:40.534Z,7.47
2022-10-03T16:26:15.053Z,9.00
2022-10-03T16:29:10.487Z,8.97
2022-10-03T16:31:42.441Z,10.17
2022-10-03T16:34:20.979Z,8.57
2022-10-03T16:36:51.308Z,11.80
2022-10-03T16:39:33.919Z,8.93
2022-10-03T16:42:10.939Z,12.17
2022-10-03T16:44:50.299Z,10.80
2022-10-03T16:47:27.808Z,10.70
2022-10-03T16:50:16.113Z,12.97
2022-10-03T16:52:47.387Z,10.07
2022-10-03T16:55:34.468Z,10.30
2022-10-03T16:58:24.412Z,9.60
2022-10-03T17:04:16.835Z,9.03
2022-10-03T17:06:52.637Z,9.27
2022-10-03T17:09:19.728Z,12.73
2022-10-03T17:11:52.540Z,8.93
2022-10-03T17:14:21.041Z,12.73
2022-10-03T17:17:08.772Z,7.63
2022-10-03T17:19:46.636Z,9.50
2022-10-03T17:22:21.970Z,8.57
2022-10-03T17:25:30.263Z,8.47
2022-10-03T17:27:58.708Z,9.83
2022-10-03T17:30:49.275Z,10.33
2022-10-03T17:33:22.169Z,9.50
2022-10-03T17:36:27.345Z,9.90
2022-10-03T17:39:03.673Z,9.03
2022-10-03T17:41:39.639Z,13.30
2022-10-03T17:44:47.441Z,11.63
2022-10-03T17:47:34.246Z,15.77
2022-10-03T17:50:12.870Z,15.07
2022-10-03T17:52:41.262Z,18.03
2022-10-03T17:55:18.394Z,20.33
2022-10-03T17:57:55.900Z,18.10
2022-10-03T18:00:31.722Z,12.83
2022-10-03T18:03:23.275Z,16.17
2022-10-03T18:05:57.807Z,11.90
2022-10-03T18:08:30.547Z,15.33
2022-10-03T18:11:01.222Z,12.70
2022-10-03T18:13:37.496Z,9.07
2022-10-03T18:16:04.288Z,12.40
2022-10-03T18:18:52.214Z,10.13
2022-10-03T18:21:49.737Z,11.70
2022-10-03T18:24:41.514Z,9.57
2022-10-03T18:27:08.546Z,12.60
2022-10-03T18:29:46.032Z,14.77
2022-10-03T18:32:22.514Z,11.67
2022-10-03T18:35:00.589Z,11.90
2022-10-03T18:37:27.189Z,9.43
2022-10-03T18:39:58.881Z,9.63
2022-10-03T18:42:28.228Z,11.50
2022-10-03T18:44:57.320Z,9.10
2022-10-03T18:47:38.809Z,8.50
2022-10-03T18:50:26.908Z,10.60
2022-10-03T18:52:55.469Z,9.73
2022-10-03T18:55:35.486Z,8.57
2022-10-03T18:58:13.376Z,8.73
2022-10-03T19:01:12.691Z,9.50
2022-10-03T19:03:46.220Z,14.63
2022-10-03T19:06:24.750Z,12.40
2022-10-03T19:08:57.814Z,10.10
2022-10-03T19:11:28.892Z,7.50
2022-10-03T19:13:55.941Z,9.10
2022-10-03T19:16:31.356Z,10.10
2022-10-03T19:19:31.344Z,9.23
2022-10-03T19:22:04.887Z,11.37
2022-10-03T19:24:53.819Z,14.80
2022-10-03T19:27:25.391Z,8.20
2022-10-03T19:29:56.118Z,7.47
2022-10-03T19:32:26.838Z,12.47
2022-10-03T19:34:57.352Z,7.93
2022-10-03T19:37:33.188Z,9.70
2022-10-03T19:40:00.106Z,9.93
2022-10-03T19:42:29.886Z,8.17
2022-10-03T19:44:59.518Z,8.67
2022-10-03T19:47:38.019Z,9.07
2022-10-03T19:50:26.777Z,7.93
2022-10-03T19:52:53.657Z,10.97
2022-10-03T19:55:33.598Z,10.10
2022-10-03T19:58:25.185Z,8.77
2022-10-03T20:01:00.213Z,10.53
2022-10-03T20:03:36.312Z,8.70
2022-10-03T20:06:14.754Z,10.23
2022-10-03T20:08:56.679Z,8.17
2022-10-03T20:11:49.515Z,11.73
2022-10-03T20:14:27.961Z,10.60
2022-10-03T20:16:57.862Z,13.97
2022-10-03T20:19:27.051Z,11.07
2022-10-03T20:22:02.172Z,21.53
2022-10-03T20:24:42.463Z,23.33
2022-10-03T20:27:23.545Z,18.23
2022-10-03T20:30:17.906Z,20.40
2022-10-03T20:32:46.218Z,16.60
2022-10-03T20:35:23.354Z,11.50
2022-10-03T20:38:03.960Z,13.23
2022-10-03T20:40:39.900Z,13.07
2022-10-03T20:43:21.627Z,12.60
2022-10-03T20:46:18.962Z,13.50
2022-10-03T20:48:54.830Z,10.27
2022-10-03T20:51:37.078Z,11.63
2022-10-03T20:54:04.268Z,12.90
2022-10-03T20:56:41.290Z,9.80
2022-10-03T20:59:12.447Z,13.23
2022-10-03T21:01:41.412Z,10.63
2022-10-03T21:04:28.301Z,14.93
2022-10-03T21:07:00.797Z,15.27
2022-10-03T21:10:01.624Z,11.97
2022-10-03T21:12:38.017Z,11.13
2022-10-03T21:15:19.383Z,12.30
2022-10-03T21:17:46.856Z,10.60
2022-10-03T21:20:31.956Z,11.90
2022-10-03T21:23:04.909Z,10.77
2022-10-03T21:25:35.154Z,11.00
2022-10-03T21:28:03.457Z,11.03
2022-10-03T21:30:42.005Z,13.80
2022-10-03T21:33:18.044Z,12.73
2022-10-03T21:35:44.917Z,12.60
2022-10-03T21:38:26.832Z,8.93
2022-10-03T21:41:15.080Z,13.60
2022-10-03T21:43:52.876Z,10.47
2022-10-03T21:46:20.000Z,13.20
2022-10-03T21:49:13.657Z,11.83
2022-10-03T21:52:09.287Z,9.57
2022-10-03T21:55:06.143Z,9.60
2022-10-03T21:58:03.250Z,13.60
2022-10-03T22:00:51.266Z,14.87
2022-10-03T22:03:54.183Z,14.03
2022-10-03T22:06:26.044Z,12.87
2022-10-03T22:08:53.649Z,10.60
2022-10-03T22:11:35.392Z,12.57
2022-10-03T22:14:24.065Z,11.40
2022-10-03T22:16:51.122Z,13.50
2022-10-03T22:19:39.258Z,12.17
2022-10-03T22:22:29.325Z,13.77
2022-10-03T22:25:14.839Z,9.53
2022-10-03T22:27:59.384Z,21.30
2022-10-03T22:30:26.712Z,9.50
2022-10-03T22:32:53.765Z,13.53
2022-10-03T22:35:32.598Z,10.50
2022-10-03T22:38:01.054Z,13.27
2022-10-03T22:40:28.540Z,11.63
2022-10-03T22:42:57.493Z,12.63
2022-10-03T22:45:27.971Z,9.83
2022-10-03T22:47:59.223Z,11.83
2022-10-03T22:50:31.532Z,13.47
2022-10-03T22:52:59.463Z,11.20
2022-10-03T22:55:27.649Z,14.67
2022-10-03T22:57:56.207Z,10.93
2022-10-03T23:00:28.685Z,9.17
2022-10-03T23:03:13.244Z,10.70
2022-10-03T23:05:53.221Z,9.57
2022-10-03T23:08:56.876Z,12.80
2022-10-03T23:11:26.712Z,12.37
2022-10-03T23:13:54.304Z,12.87
2022-10-03T23:16:32.606Z,11.30
2022-10-03T23:18:59.630Z,8.90
2022-10-03T23:21:26.819Z,9.97
2022-10-03T23:23:53.911Z,12.67
2022-10-03T23:26:38.449Z,11.57
2022-10-03T23:29:05.164Z,12.97
2022-10-03T23:31:59.686Z,14.07
2022-10-03T23:34:35.770Z,17.40
2022-10-03T23:37:11.685Z,11.23
2022-10-03T23:39:43.898Z,12.60
2022-10-03T23:42:15.508Z,14.00
2022-10-03T23:44:50.638Z,10.40
2022-10-03T23:47:20.762Z,12.50
2022-10-03T23:49:50.430Z,12.80
2022-10-03T23:52:31.074Z,12.27
2022-10-03T23:55:03.669Z,9.50
2022-10-03T23:57:42.408Z,10.63
